createdAt,value
2018-01-22T00:02:13.701Z,5.67
2018-01-22T00:04:42.833Z,5.00
2018-01-22T00:07:11.066Z,4.20
2018-01-22T00:09:40.206Z,5.20
2018-01-22T00:12:08.437Z,4.60
2018-01-22T00:14:37.442Z,3.50
2018-01-22T00:17:05.844Z,4.50
2018-01-22T00:19:34.341Z,3.97
2018-01-22T00:22:02.570Z,5.80
2018-01-22T00:24:31.579Z,4.80
2018-01-22T00:26:59.981Z,3.80
2018-01-22T00:29:28.224Z,5.57
2018-01-22T00:31:57.308Z,4.57
2018-01-22T00:34:25.550Z,3.47
2018-01-22T00:36:53.913Z,4.03
2018-01-22T00:39:23.701Z,3.50
2018-01-22T00:41:52.086Z,4.20
2018-01-22T00:44:20.328Z,3.83
2018-01-22T00:46:48.576Z,5.57
2018-01-22T00:49:16.970Z,3.50
2018-01-22T00:51:45.768Z,4.70
2018-01-22T00:54:14.043Z,3.20
2018-01-22T00:56:42.273Z,3.13
2018-01-22T00:59:10.505Z,3.87
2018-01-22T01:01:39.524Z,3.60
2018-01-22T01:04:07.908Z,2.73
2018-01-22T01:06:36.139Z,3.13
2018-01-22T01:09:04.371Z,2.57
2018-01-22T01:11:32.845Z,3.13
2018-01-22T01:14:01.109Z,3.20
2018-01-22T01:16:29.333Z,2.30
2018-01-22T01:18:57.587Z,2.30
2018-01-22T01:21:25.857Z,3.00
2018-01-22T01:23:54.323Z,2.63
2018-01-22T01:26:22.659Z,2.27
2018-01-22T01:28:50.857Z,2.70
2018-01-22T01:31:19.908Z,2.90
2018-01-22T01:33:48.189Z,2.23
2018-01-22T01:36:16.393Z,1.90
2018-01-22T01:38:44.669Z,2.00
2018-01-22T01:41:12.960Z,1.93
2018-01-22T01:43:41.209Z,2.00
2018-01-22T01:46:09.444Z,1.70
2018-01-22T01:48:37.705Z,1.20
2018-01-22T01:51:05.983Z,1.23
2018-01-22T01:53:34.189Z,1.97
2018-01-22T01:56:02.460Z,2.23
2018-01-22T01:58:31.314Z,1.47
2018-01-22T02:00:59.765Z,4.00
2018-01-22T02:03:28.793Z,1.37
2018-01-22T02:05:57.056Z,1.70
2018-01-22T02:08:25.313Z,1.87
2018-01-22T02:10:54.353Z,1.77
2018-01-22T02:13:23.380Z,1.63
2018-01-22T02:15:51.618Z,2.13
2018-01-22T02:18:19.889Z,3.40
2018-01-22T02:20:48.143Z,1.50
2018-01-22T02:23:16.412Z,1.37
2018-01-22T02:25:45.406Z,1.57
2018-01-22T02:28:13.665Z,1.60
2018-01-22T02:30:41.939Z,1.63
2018-01-22T02:33:11.046Z,1.40
2018-01-22T02:35:39.293Z,1.90
2018-01-22T02:38:07.578Z,1.13
2018-01-22T02:40:35.820Z,1.27
2018-01-22T02:43:04.083Z,1.33
2018-01-22T02:45:32.391Z,1.57
2018-01-22T02:48:00.644Z,1.70
2018-01-22T02:50:28.930Z,1.37
2018-01-22T02:52:57.172Z,1.53
2018-01-22T02:55:26.181Z,1.33
2018-01-22T02:57:54.456Z,1.53
2018-01-22T03:00:22.692Z,1.10
2018-01-22T03:02:52.449Z,1.30
2018-01-22T03:05:20.713Z,1.53
2018-01-22T03:07:48.974Z,1.50
2018-01-22T03:10:17.256Z,1.23
2018-01-22T03:12:45.516Z,0.80
2018-01-22T03:15:14.579Z,1.20
2018-01-22T03:17:42.992Z,1.20
2018-01-22T03:20:11.248Z,1.00
2018-01-22T03:22:39.510Z,1.17
2018-01-22T03:25:08.613Z,1.00
2018-01-22T03:27:36.878Z,0.73
2018-01-22T03:30:05.145Z,0.93
2018-01-22T03:32:33.481Z,0.70
2018-01-22T03:35:01.745Z,1.10
2018-01-22T03:37:30.005Z,1.10
2018-01-22T03:39:58.248Z,1.17
2018-01-22T03:42:26.505Z,0.80
2018-01-22T03:44:55.655Z,1.13
2018-01-22T03:47:23.900Z,1.40
2018-01-22T03:49:52.129Z,0.90
2018-01-22T03:52:21.319Z,1.00
2018-01-22T03:54:49.541Z,1.03
2018-01-22T03:57:17.871Z,0.87
2018-01-22T03:59:46.090Z,0.80
2018-01-22T04:02:15.885Z,1.00
2018-01-22T04:04:44.141Z,0.90
2018-01-22T04:07:17.305Z,0.80
2018-01-22T04:09:45.696Z,1.00
2018-01-22T04:12:13.918Z,0.80
2018-01-22T04:14:42.916Z,0.90
2018-01-22T04:17:11.154Z,0.80
2018-01-22T04:19:40.928Z,0.90
2018-01-22T04:22:09.204Z,0.90
2018-01-22T04:24:37.656Z,1.00
2018-01-22T04:27:05.945Z,0.80
2018-01-22T04:29:34.801Z,0.90
2018-01-22T04:32:03.829Z,1.00
2018-01-22T04:34:32.067Z,0.90
2018-01-22T04:37:00.291Z,0.90
2018-01-22T04:39:28.555Z,1.00
2018-01-22T04:41:56.812Z,0.70
2018-01-22T04:44:25.054Z,0.80
2018-01-22T04:46:53.288Z,1.43
2018-01-22T04:49:21.544Z,2.10
2018-01-22T04:51:49.807Z,0.87
2018-01-22T04:54:18.033Z,1.10
2018-01-22T04:56:46.291Z,0.97
2018-01-22T04:59:14.547Z,0.77
2018-01-22T05:01:42.773Z,0.73
2018-01-22T05:04:11.033Z,0.87
2018-01-22T05:06:39.265Z,1.00
2018-01-22T05:09:07.747Z,0.90
2018-01-22T05:11:35.992Z,0.60
2018-01-22T05:14:04.272Z,0.60
2018-01-22T05:16:32.549Z,0.87
2018-01-22T05:19:00.754Z,0.67
2018-01-22T05:21:29.773Z,0.97
2018-01-22T05:23:58.023Z,0.60
2018-01-22T05:26:26.376Z,0.60
2018-01-22T05:28:54.641Z,0.60
2018-01-22T05:31:22.920Z,4.40
2018-01-22T05:33:51.180Z,0.70
2018-01-22T05:36:19.432Z,0.80
2018-01-22T05:38:47.664Z,0.73
2018-01-22T05:41:15.903Z,1.50
2018-01-22T05:43:44.159Z,0.70
2018-01-22T05:46:12.477Z,1.17
2018-01-22T05:48:40.688Z,0.97
2018-01-22T05:51:08.926Z,0.63
2018-01-22T05:53:37.173Z,0.70
2018-01-22T05:56:05.416Z,0.63
2018-01-22T05:58:33.651Z,0.73
2018-01-22T06:01:01.903Z,0.67
2018-01-22T06:03:30.145Z,0.73
2018-01-22T06:05:58.377Z,1.10
2018-01-22T06:08:26.659Z,0.90
2018-01-22T06:10:54.895Z,1.00
2018-01-22T06:13:23.112Z,0.70
2018-01-22T06:15:51.385Z,0.70
2018-01-22T06:18:19.635Z,0.87
2018-01-22T06:20:47.886Z,0.73
2018-01-22T06:23:16.316Z,0.67
2018-01-22T06:25:44.585Z,0.60
2018-01-22T06:28:13.066Z,0.90
2018-01-22T06:30:41.326Z,1.23
2018-01-22T06:33:09.545Z,1.13
2018-01-22T06:35:38.575Z,0.90
2018-01-22T06:38:06.982Z,0.70
2018-01-22T06:40:35.226Z,0.80
2018-01-22T06:43:03.455Z,0.50
2018-01-22T06:45:32.464Z,1.07
2018-01-22T06:48:00.737Z,1.00
2018-01-22T06:50:28.994Z,1.47
2018-01-22T06:52:58.745Z,1.00
2018-01-22T06:55:26.972Z,0.70
2018-01-22T06:57:55.228Z,0.80
2018-01-22T07:00:23.547Z,3.27
2018-01-22T07:02:53.495Z,0.80
2018-01-22T07:05:21.930Z,1.53
2018-01-22T07:07:50.179Z,1.20
2018-01-22T07:10:18.516Z,0.90
2018-01-22T07:12:46.744Z,1.30
2018-01-22T07:15:16.480Z,0.70
2018-01-22T07:17:44.750Z,0.93
2018-01-22T07:20:15.964Z,1.10
2018-01-22T07:22:44.248Z,0.80
2018-01-22T07:25:12.513Z,1.10
2018-01-22T07:27:40.902Z,0.80
2018-01-22T07:30:09.113Z,2.23
2018-01-22T07:32:37.422Z,0.87
2018-01-22T07:35:06.411Z,1.57
2018-01-22T07:37:34.675Z,1.20
2018-01-22T07:40:02.955Z,0.90
2018-01-22T07:42:31.339Z,2.30
2018-01-22T07:44:59.613Z,0.80
2018-01-22T07:47:27.953Z,1.10
2018-01-22T07:49:56.233Z,2.90
2018-01-22T07:52:24.503Z,1.40
2018-01-22T07:54:53.497Z,0.60
2018-01-22T07:57:21.989Z,0.70
2018-01-22T07:59:50.253Z,1.10
2018-01-22T08:02:20.009Z,0.80
2018-01-22T08:04:48.269Z,1.03
2018-01-22T08:07:16.496Z,1.53
2018-01-22T08:09:44.716Z,1.20
2018-01-22T08:12:13.734Z,1.00
2018-01-22T08:14:41.965Z,1.07
2018-01-22T08:17:10.224Z,1.73
2018-01-22T08:19:38.452Z,2.50
2018-01-22T08:22:06.800Z,2.93
2018-01-22T08:24:35.280Z,2.27
2018-01-22T08:27:03.515Z,1.40
2018-01-22T08:29:31.768Z,2.77
2018-01-22T08:32:00.199Z,2.90
2018-01-22T08:34:28.505Z,2.70
2018-01-22T08:36:56.785Z,2.57
2018-01-22T08:39:25.051Z,2.87
2018-01-22T08:41:54.045Z,6.07
2018-01-22T08:44:22.300Z,3.80
2018-01-22T08:46:50.525Z,3.50
2018-01-22T08:49:18.772Z,4.20
2018-01-22T08:51:47.793Z,5.50
2018-01-22T08:54:16.054Z,5.13
2018-01-22T08:56:44.495Z,5.83
2018-01-22T08:59:12.728Z,4.90
2018-01-22T09:01:41.003Z,6.27
2018-01-22T09:04:09.271Z,10.53
2018-01-22T09:06:37.521Z,14.57
2018-01-22T09:09:06.861Z,11.53
2018-01-22T09:11:35.141Z,10.30
2018-01-22T09:14:03.460Z,12.20
2018-01-22T09:16:31.888Z,14.07
2018-01-22T09:19:00.219Z,19.43
2018-01-22T09:21:28.533Z,21.37
2018-01-22T09:23:56.901Z,23.40
2018-01-22T09:26:25.142Z,20.40
2018-01-22T09:28:54.284Z,22.73
2018-01-22T09:31:22.621Z,22.50
2018-01-22T09:33:50.836Z,30.53
2018-01-22T09:36:19.330Z,25.73
2018-01-22T09:38:48.680Z,23.23
2018-01-22T09:41:16.907Z,21.80
2018-01-22T09:43:45.213Z,24.27
2018-01-22T09:46:13.513Z,26.50
2018-01-22T09:48:41.848Z,24.50
2018-01-22T09:51:10.166Z,27.50
2018-01-22T09:53:38.373Z,21.17
2018-01-22T09:56:06.649Z,24.70
2018-01-22T09:58:34.905Z,21.93
2018-01-22T10:01:03.179Z,25.90
2018-01-22T10:03:31.432Z,20.90
2018-01-22T10:06:01.222Z,25.53
2018-01-22T10:08:30.457Z,29.63
2018-01-22T10:10:58.703Z,25.57
2018-01-22T10:13:27.008Z,25.00
2018-01-22T10:15:56.037Z,26.37
2018-01-22T10:18:24.469Z,28.17
2018-01-22T10:20:52.706Z,34.33
2018-01-22T10:23:21.137Z,27.33
2018-01-22T10:25:49.455Z,25.50
2018-01-22T10:28:17.746Z,24.13
2018-01-22T10:30:46.033Z,31.87
2018-01-22T10:33:14.288Z,24.80
2018-01-22T10:35:42.548Z,25.60
2018-01-22T10:38:10.963Z,29.13
2018-01-22T10:40:39.254Z,27.63
2018-01-22T10:43:07.714Z,26.83
2018-01-22T10:45:35.950Z,27.10
2018-01-22T10:48:04.219Z,26.10
2018-01-22T10:50:33.562Z,23.60
2018-01-22T10:53:01.886Z,27.93
2018-01-22T10:55:30.987Z,28.80
2018-01-22T10:57:59.466Z,29.23
2018-01-22T11:00:31.837Z,34.47
2018-01-22T11:03:00.073Z,28.43
2018-01-22T11:05:28.387Z,30.73
2018-01-22T11:07:56.639Z,29.67
2018-01-22T11:10:26.406Z,25.13
2018-01-22T11:12:54.661Z,22.80
2018-01-22T11:15:28.663Z,26.03
2018-01-22T11:17:56.936Z,27.57
2018-01-22T11:20:25.166Z,28.13
2018-01-22T11:22:53.521Z,25.60
2018-01-22T11:25:21.790Z,22.13
2018-01-22T11:27:50.024Z,21.50
2018-01-22T11:30:19.072Z,27.57
2018-01-22T11:32:47.312Z,20.30
2018-01-22T11:35:16.513Z,20.83
2018-01-22T11:37:44.750Z,24.83
2018-01-22T11:40:12.980Z,22.63
2018-01-22T11:42:41.393Z,21.83
2018-01-22T11:45:09.727Z,24.57
2018-01-22T11:47:38.141Z,20.77
2018-01-22T11:50:06.632Z,21.40
2018-01-22T11:52:35.241Z,22.77
2018-01-22T11:55:03.604Z,16.70
2018-01-22T11:57:32.069Z,23.33
2018-01-22T12:00:00.448Z,22.87
2018-01-22T12:02:28.732Z,16.13
2018-01-22T12:04:56.981Z,18.43
2018-01-22T12:07:25.280Z,22.93
2018-01-22T12:09:53.519Z,16.40
2018-01-22T12:12:26.256Z,15.37
2018-01-22T12:14:54.501Z,14.67
2018-01-22T12:17:22.764Z,14.60
2018-01-22T12:19:51.049Z,18.13
2018-01-22T12:22:19.410Z,11.90
2018-01-22T12:24:47.737Z,15.30
2018-01-22T12:27:16.022Z,13.90
2018-01-22T12:29:44.272Z,15.83
2018-01-22T12:32:12.536Z,12.73
2018-01-22T12:34:41.584Z,13.77
2018-01-22T12:37:10.601Z,16.50
2018-01-22T12:39:39.681Z,12.63
2018-01-22T12:42:07.902Z,8.03
2018-01-22T12:44:36.194Z,7.87
2018-01-22T12:47:04.509Z,9.83
2018-01-22T12:49:32.737Z,7.53
2018-01-22T12:52:01.013Z,7.90
2018-01-22T12:54:29.272Z,6.67
2018-01-22T12:56:57.543Z,8.30
2018-01-22T12:59:25.791Z,10.30
2018-01-22T13:01:54.069Z,9.40
2018-01-22T13:04:23.060Z,8.53
2018-01-22T13:06:51.376Z,12.53
2018-01-22T13:09:19.644Z,9.53
2018-01-22T13:11:47.903Z,7.97
2018-01-22T13:14:16.184Z,11.37
2018-01-22T13:16:45.166Z,12.90
2018-01-22T13:19:13.492Z,6.50
2018-01-22T13:21:41.728Z,10.23
2018-01-22T13:24:09.962Z,7.03
2018-01-22T13:26:38.266Z,6.00
2018-01-22T13:29:06.546Z,11.13
2018-01-22T13:31:34.763Z,16.03
2018-01-22T13:34:03.041Z,16.83
2018-01-22T13:36:31.319Z,10.77
2018-01-22T13:38:59.562Z,9.50
2018-01-22T13:41:28.594Z,12.93
2018-01-22T13:43:56.876Z,14.43
2018-01-22T13:46:25.702Z,8.60
2018-01-22T13:48:54.638Z,8.07
2018-01-22T13:51:22.901Z,8.13
2018-01-22T13:53:51.152Z,6.73
2018-01-22T13:56:20.342Z,8.57
2018-01-22T13:58:48.694Z,11.30
2018-01-22T14:01:17.831Z,11.43
2018-01-22T14:03:46.484Z,20.87
2018-01-22T14:06:14.823Z,12.40
2018-01-22T14:08:43.783Z,11.10
2018-01-22T14:11:16.551Z,8.70
2018-01-22T14:13:46.070Z,12.90
2018-01-22T14:16:14.421Z,8.33
2018-01-22T14:18:47.115Z,10.97
2018-01-22T14:21:15.532Z,12.40
2018-01-22T14:23:44.882Z,9.73
2018-01-22T14:26:13.852Z,11.30
2018-01-22T14:28:43.016Z,15.57
2018-01-22T14:31:12.936Z,10.63
2018-01-22T14:33:41.951Z,12.97
2018-01-22T14:36:10.481Z,11.37
2018-01-22T14:38:38.726Z,9.00
2018-01-22T14:41:07.169Z,8.33
2018-01-22T14:43:35.434Z,16.10
2018-01-22T14:46:04.533Z,8.63
2018-01-22T14:48:33.812Z,11.30
2018-01-22T14:51:02.016Z,13.00
2018-01-22T14:53:30.290Z,18.73
2018-01-22T14:55:59.360Z,8.50
2018-01-22T14:58:27.629Z,11.50
2018-01-22T15:00:56.628Z,10.13
2018-01-22T15:03:25.083Z,15.10
2018-01-22T15:05:53.327Z,9.50
2018-01-22T15:08:21.704Z,12.57
2018-01-22T15:10:49.965Z,16.40
2018-01-22T15:13:18.416Z,12.43
2018-01-22T15:15:46.645Z,15.13
2018-01-22T15:18:14.911Z,10.20
2018-01-22T15:20:43.196Z,9.17
2018-01-22T15:23:12.226Z,8.00
2018-01-22T15:25:40.625Z,11.23
2018-01-22T15:28:08.850Z,9.07
2018-01-22T15:30:37.122Z,13.67
2018-01-22T15:33:05.361Z,9.80
2018-01-22T15:35:33.861Z,8.87
2018-01-22T15:38:02.140Z,7.80
2018-01-22T15:40:30.655Z,11.20
2018-01-22T15:42:59.024Z,14.70
2018-01-22T15:45:27.236Z,11.13
2018-01-22T15:47:55.502Z,12.53
2018-01-22T15:50:23.914Z,10.87
2018-01-22T15:52:52.275Z,18.30
2018-01-22T15:55:20.527Z,8.60
2018-01-22T15:57:48.753Z,14.53
2018-01-22T16:00:17.155Z,10.00
2018-01-22T16:02:45.507Z,13.60
2018-01-22T16:05:13.848Z,9.53
2018-01-22T16:07:42.408Z,11.30
2018-01-22T16:10:10.688Z,19.27
2018-01-22T16:12:38.953Z,13.93
2018-01-22T16:15:07.223Z,12.80
2018-01-22T16:17:35.527Z,13.40
2018-01-22T16:20:03.743Z,9.70
2018-01-22T16:22:32.924Z,11.40
2018-01-22T16:25:01.960Z,10.53
2018-01-22T16:27:30.221Z,14.50
2018-01-22T16:29:58.717Z,15.93
2018-01-22T16:32:27.020Z,13.63
2018-01-22T16:34:55.258Z,18.20
2018-01-22T16:37:23.509Z,11.80
2018-01-22T16:39:52.540Z,13.30
2018-01-22T16:42:21.551Z,18.30
2018-01-22T16:44:49.848Z,15.47
2018-01-22T16:47:23.652Z,11.67
2018-01-22T16:49:51.934Z,14.30
2018-01-22T16:52:20.237Z,13.17
2018-01-22T16:54:48.506Z,13.30
2018-01-22T16:57:16.783Z,12.07
2018-01-22T16:59:45.061Z,18.30
2018-01-22T17:02:13.301Z,14.00
2018-01-22T17:04:41.568Z,13.63
2018-01-22T17:07:09.808Z,26.23
2018-01-22T17:09:38.829Z,13.00
2018-01-22T17:12:07.852Z,18.13
2018-01-22T17:14:36.105Z,12.60
2018-01-22T17:17:04.389Z,10.50
2018-01-22T17:19:32.680Z,10.03
2018-01-22T17:22:00.940Z,11.23
2018-01-22T17:24:29.203Z,10.73
2018-01-22T17:26:57.556Z,11.37
2018-01-22T17:29:25.833Z,10.67
2018-01-22T17:31:54.106Z,9.30
2018-01-22T17:34:22.575Z,8.90
2018-01-22T17:36:50.960Z,15.60
2018-01-22T17:39:19.961Z,11.00
2018-01-22T17:41:48.211Z,11.23
2018-01-22T17:44:16.605Z,17.50
2018-01-22T17:46:44.865Z,18.17
2018-01-22T17:49:13.918Z,19.90
2018-01-22T17:51:42.167Z,14.50
2018-01-22T17:54:10.437Z,16.90
2018-01-22T17:56:38.701Z,13.87
2018-01-22T17:59:06.962Z,17.10
2018-01-22T18:01:35.226Z,10.63
2018-01-22T18:04:03.525Z,16.07
2018-01-22T18:06:31.825Z,19.67
2018-01-22T18:09:00.077Z,19.47
2018-01-22T18:11:28.534Z,16.13
2018-01-22T18:13:57.847Z,16.47
2018-01-22T18:16:26.081Z,14.73
2018-01-22T18:18:54.382Z,12.67
2018-01-22T18:21:22.680Z,19.00
2018-01-22T18:23:50.889Z,17.20
2018-01-22T18:26:19.178Z,19.20
2018-01-22T18:28:47.418Z,12.83
2018-01-22T18:31:15.701Z,13.60
2018-01-22T18:33:44.714Z,19.67
2018-01-22T18:36:13.255Z,22.83
2018-01-22T18:38:41.511Z,19.50
2018-01-22T18:41:09.779Z,19.33
2018-01-22T18:43:38.254Z,20.20
2018-01-22T18:46:06.537Z,17.53
2018-01-22T18:48:34.843Z,21.43
2018-01-22T18:51:03.174Z,24.33
2018-01-22T18:53:31.457Z,25.13
2018-01-22T18:55:59.725Z,17.17
2018-01-22T18:58:28.743Z,18.53
2018-01-22T19:00:57.049Z,22.73
2018-01-22T19:03:25.478Z,18.77
2018-01-22T19:05:53.789Z,20.23
2018-01-22T19:08:23.643Z,20.27
2018-01-22T19:10:51.953Z,21.00
2018-01-22T19:13:20.275Z,20.13
2018-01-22T19:15:48.569Z,13.07
2018-01-22T19:18:16.818Z,24.30
2018-01-22T19:20:46.600Z,15.97
2018-01-22T19:23:14.855Z,17.73
2018-01-22T19:25:43.136Z,18.30
2018-01-22T19:28:11.518Z,21.27
2018-01-22T19:30:39.772Z,19.47
2018-01-22T19:33:08.040Z,17.60
2018-01-22T19:35:36.306Z,20.67
2018-01-22T19:38:05.497Z,24.73
2018-01-22T19:40:33.720Z,24.70
2018-01-22T19:43:01.968Z,24.43
2018-01-22T19:45:31.006Z,18.33
2018-01-22T19:48:00.469Z,28.97
2018-01-22T19:50:28.768Z,17.67
2018-01-22T19:52:57.331Z,26.67
2018-01-22T19:55:27.191Z,23.87
2018-01-22T19:57:55.479Z,24.53
2018-01-22T20:00:24.046Z,21.40
2018-01-22T20:02:52.557Z,20.70
2018-01-22T20:05:20.800Z,19.60
2018-01-22T20:07:49.136Z,19.60
2018-01-22T20:10:17.429Z,23.70
2018-01-22T20:12:45.690Z,20.47
2018-01-22T20:15:14.201Z,25.60
2018-01-22T20:17:42.452Z,25.57
2018-01-22T20:20:10.709Z,14.87
2018-01-22T20:22:39.001Z,22.00
2018-01-22T20:25:07.293Z,25.80
2018-01-22T20:27:35.557Z,25.20
2018-01-22T20:30:03.828Z,16.33
2018-01-22T20:32:32.086Z,20.53
2018-01-22T20:35:01.375Z,20.03
2018-01-22T20:37:29.572Z,22.20
2018-01-22T20:39:57.858Z,19.27
2018-01-22T20:42:26.882Z,22.20
2018-01-22T20:44:55.307Z,23.57
2018-01-22T20:47:25.072Z,23.93
2018-01-22T20:49:53.350Z,19.17
2018-01-22T20:52:21.616Z,23.20
2018-01-22T20:54:49.957Z,20.70
2018-01-22T20:57:18.993Z,26.97
2018-01-22T20:59:47.253Z,18.10
2018-01-22T21:02:15.760Z,29.10
2018-01-22T21:04:44.138Z,24.10
2018-01-22T21:07:12.381Z,22.40
2018-01-22T21:09:40.876Z,23.30
2018-01-22T21:12:09.367Z,29.00
2018-01-22T21:14:37.638Z,17.13
2018-01-22T21:17:05.883Z,33.17
2018-01-22T21:19:35.022Z,23.33
2018-01-22T21:22:04.288Z,26.33
2018-01-22T21:24:32.589Z,27.93
2018-01-22T21:27:00.824Z,22.53
2018-01-22T21:29:29.969Z,20.30
2018-01-22T21:31:58.420Z,27.40
2018-01-22T21:34:26.910Z,25.30
2018-01-22T21:36:55.171Z,27.83
2018-01-22T21:39:24.169Z,30.20
2018-01-22T21:41:52.784Z,29.10
2018-01-22T21:44:21.042Z,25.57
2018-01-22T21:46:49.541Z,23.93
2018-01-22T21:49:18.020Z,25.03
2018-01-22T21:51:46.303Z,22.13
2018-01-22T21:54:14.617Z,25.17
2018-01-22T21:56:43.163Z,25.03
2018-01-22T21:59:11.439Z,23.03
2018-01-22T22:01:39.698Z,23.93
2018-01-22T22:04:08.595Z,26.17
2018-01-22T22:06:36.853Z,31.63
2018-01-22T22:09:05.461Z,22.57
2018-01-22T22:11:33.920Z,26.83
2018-01-22T22:14:03.178Z,27.90
2018-01-22T22:16:31.570Z,25.03
2018-01-22T22:19:00.004Z,28.47
2018-01-22T22:21:28.266Z,25.67
2018-01-22T22:23:56.512Z,27.37
2018-01-22T22:26:25.742Z,23.77
2018-01-22T22:28:53.978Z,25.67
2018-01-22T22:31:22.225Z,22.87
2018-01-22T22:33:50.676Z,29.97
2018-01-22T22:36:18.928Z,18.40
2018-01-22T22:38:47.176Z,19.67
2018-01-22T22:41:16.276Z,20.40
2018-01-22T22:43:45.349Z,19.50
2018-01-22T22:46:13.565Z,27.70
2018-01-22T22:48:42.194Z,19.63
2018-01-22T22:51:11.332Z,16.87
2018-01-22T22:53:39.608Z,26.43
2018-01-22T22:56:08.131Z,16.43
2018-01-22T22:58:36.401Z,17.70
2018-01-22T23:01:05.014Z,19.10
2018-01-22T23:03:33.285Z,18.83
2018-01-22T23:06:01.505Z,23.30
2018-01-22T23:08:30.586Z,15.17
2018-01-22T23:10:58.974Z,24.27
2018-01-22T23:13:27.244Z,15.13
2018-01-22T23:15:56.449Z,17.43
2018-01-22T23:18:25.493Z,19.20
2018-01-22T23:20:53.738Z,17.50
2018-01-22T23:23:22.141Z,25.07
2018-01-22T23:25:51.284Z,17.30
2018-01-22T23:28:19.926Z,13.93
2018-01-22T23:30:48.247Z,22.07
2018-01-22T23:33:16.440Z,20.30
2018-01-22T23:35:45.461Z,13.67
2018-01-22T23:38:13.719Z,23.40
2018-01-22T23:40:42.180Z,13.93
2018-01-22T23:43:11.275Z,24.03
2018-01-22T23:45:39.587Z,17.73
2018-01-22T23:48:08.013Z,12.43
2018-01-22T23:50:36.251Z,14.70
2018-01-22T23:53:04.542Z,19.93
2018-01-22T23:55:32.806Z,14.40
2018-01-22T23:58:01.087Z,15.80
